sensor_id;sensor_type;location;lat;lon;timestamp;pressure;altitude;pressure_sealevel;temperature;humidity
9139;BME280;4604;48.616;9.548;2023-07-29T00:00:38;96543.34;;;17.36;100.00
9139;BME280;4604;48.616;9.548;2023-07-29T00:03:04;96538.00;;;17.36;100.00
9139;BME280;4604;48.616;9.548;2023-07-29T00:05:32;96535.81;;;17.40;100.00
9139;BME280;4604;48.616;9.548;2023-07-29T00:07:58;96540.69;;;17.36;100.00
9139;BME280;4604;48.616;9.548;2023-07-29T00:10:25;96531.03;;;17.35;100.00
9139;BME280;4604;48.616;9.548;2023-07-29T00:12:53;96527.63;;;17.41;100.00
9139;BME280;4604;48.616;9.548;2023-07-29T00:15:20;96530.66;;;17.38;100.00
9139;BME280;4604;48.616;9.548;2023-07-29T00:17:47;96529.00;;;17.37;100.00
9139;BME280;4604;48.616;9.548;2023-07-29T00:20:13;96527.63;;;17.41;100.00
9139;BME280;4604;48.616;9.548;2023-07-29T00:22:40;96520.44;;;17.42;100.00
9139;BME280;4604;48.616;9.548;2023-07-29T00:25:07;96526.03;;;17.47;100.00
9139;BME280;4604;48.616;9.548;2023-07-29T00:27:34;96519.47;;;17.49;100.00
9139;BME280;4604;48.616;9.548;2023-07-29T00:30:03;96512.09;;;17.51;100.00
9139;BME280;4604;48.616;9.548;2023-07-29T00:32:30;96505.94;;;17.51;100.00
9139;BME280;4604;48.616;9.548;2023-07-29T00:34:56;96502.09;;;17.60;100.00
9139;BME280;4604;48.616;9.548;2023-07-29T00:37:26;96511.56;;;17.63;100.00
9139;BME280;4604;48.616;9.548;2023-07-29T00:39:52;96509.53;;;17.65;100.00
9139;BME280;4604;48.616;9.548;2023-07-29T00:42:19;96507.50;;;17.67;100.00
9139;BME280;4604;48.616;9.548;2023-07-29T00:44:46;96518.41;;;17.72;100.00
9139;BME280;4604;48.616;9.548;2023-07-29T00:47:15;96509.59;;;17.71;100.00
9139;BME280;4604;48.616;9.548;2023-07-29T00:49:42;96506.72;;;17.73;100.00
9139;BME280;4604;48.616;9.548;2023-07-29T00:52:10;96495.22;;;17.72;100.00
9139;BME280;4604;48.616;9.548;2023-07-29T00:54:38;96494.38;;;17.72;100.00
9139;BME280;4604;48.616;9.548;2023-07-29T00:57:05;96486.38;;;17.72;100.00
9139;BME280;4604;48.616;9.548;2023-07-29T00:59:33;96485.16;;;17.74;100.00
9139;BME280;4604;48.616;9.548;2023-07-29T01:02:01;96487.00;;;17.74;100.00
9139;BME280;4604;48.616;9.548;2023-07-29T01:04:30;96485.16;;;17.74;100.00
9139;BME280;4604;48.616;9.548;2023-07-29T01:07:03;96480.00;;;17.66;100.00
9139;BME280;4604;48.616;9.548;2023-07-29T01:09:38;96491.13;;;17.76;100.00
9139;BME280;4604;48.616;9.548;2023-07-29T01:12:12;96493.41;;;17.80;100.00
9139;BME280;4604;48.616;9.548;2023-07-29T01:14:46;96499.22;;;17.83;100.00
9139;BME280;4604;48.616;9.548;2023-07-29T01:17:19;96495.34;;;17.86;100.00
9139;BME280;4604;48.616;9.548;2023-07-29T01:19:59;96501.09;;;17.89;100.00
9139;BME280;4604;48.616;9.548;2023-07-29T01:22:28;96489.38;;;17.84;100.00
9139;BME280;4604;48.616;9.548;2023-07-29T01:24:57;96491.06;;;17.91;100.00
9139;BME280;4604;48.616;9.548;2023-07-29T01:27:24;96489.06;;;18.00;100.00
9139;BME280;4604;48.616;9.548;2023-07-29T01:29:51;96482.28;;;17.98;100.00
9139;BME280;4604;48.616;9.548;2023-07-29T01:32:35;96481.06;;;18.00;100.00
9139;BME280;4604;48.616;9.548;2023-07-29T01:35:11;96467.47;;;17.95;100.00
9139;BME280;4604;48.616;9.548;2023-07-29T01:37:42;96475.09;;;17.98;100.00
9139;BME280;4604;48.616;9.548;2023-07-29T01:40:12;96477.34;;;18.01;100.00
9139;BME280;4604;48.616;9.548;2023-07-29T01:42:40;96477.41;;;18.08;100.00
9139;BME280;4604;48.616;9.548;2023-07-29T01:45:07;96469.38;;;18.08;100.00
9139;BME280;4604;48.616;9.548;2023-07-29T01:47:33;96490.56;;;18.16;100.00
9139;BME280;4604;48.616;9.548;2023-07-29T01:50:00;96479.06;;;18.15;100.00
9139;BME280;4604;48.616;9.548;2023-07-29T01:52:27;96484.81;;;18.19;100.00
9139;BME280;4604;48.616;9.548;2023-07-29T01:54:53;96485.69;;;18.20;100.00
9139;BME280;4604;48.616;9.548;2023-07-29T01:57:21;96485.69;;;18.20;100.00
9139;BME280;4604;48.616;9.548;2023-07-29T01:59:48;96485.47;;;18.21;100.00
9139;BME280;4604;48.616;9.548;2023-07-29T02:02:15;96465.31;;;18.12;100.00
9139;BME280;4604;48.616;9.548;2023-07-29T02:04:41;96469.03;;;18.17;100.00
9139;BME280;4604;48.616;9.548;2023-07-29T02:07:08;96425.97;;;17.92;100.00
9139;BME280;4604;48.616;9.548;2023-07-29T02:09:34;96475.44;;;18.30;100.00
9139;BME280;4604;48.616;9.548;2023-07-29T02:12:01;96478.53;;;18.27;100.00
9139;BME280;4604;48.616;9.548;2023-07-29T02:14:29;96475.22;;;18.25;100.00
9139;BME280;4604;48.616;9.548;2023-07-29T02:16:56;96470.06;;;18.23;100.00
9139;BME280;4604;48.616;9.548;2023-07-29T02:19:23;96464.53;;;18.25;100.00
9139;BME280;4604;48.616;9.548;2023-07-29T02:21:49;96465.16;;;18.27;100.00
9139;BME280;4604;48.616;9.548;2023-07-29T02:24:16;96464.94;;;18.28;100.00
9139;BME280;4604;48.616;9.548;2023-07-29T02:26:43;96471.97;;;18.29;100.00
9139;BME280;4604;48.616;9.548;2023-07-29T02:29:09;96471.53;;;18.32;100.00
9139;BME280;4604;48.616;9.548;2023-07-29T02:31:37;96444.72;;;18.06;100.00
9139;BME280;4604;48.616;9.548;2023-07-29T02:34:04;96465.94;;;18.21;100.00
9139;BME280;4604;48.616;9.548;2023-07-29T02:36:31;96467.00;;;18.26;100.00
9139;BME280;4604;48.616;9.548;2023-07-29T02:38:57;96464.31;;;18.26;100.00
9139;BME280;4604;48.616;9.548;2023-07-29T02:41:24;96456.31;;;18.26;100.00
9139;BME280;4604;48.616;9.548;2023-07-29T02:43:51;96456.31;;;18.26;100.00
9139;BME280;4604;48.616;9.548;2023-07-29T02:46:17;96451.19;;;18.25;100.00
9139;BME280;4604;48.616;9.548;2023-07-29T02:48:46;96433.25;;;18.18;100.00
9139;BME280;4604;48.616;9.548;2023-07-29T02:51:12;96446.47;;;18.27;100.00
9139;BME280;4604;48.616;9.548;2023-07-29T02:53:39;96446.47;;;18.27;100.00
9139;BME280;4604;48.616;9.548;2023-07-29T02:56:06;96442.56;;;18.29;100.00
9139;BME280;4604;48.616;9.548;2023-07-29T02:58:34;96446.06;;;18.30;100.00
9139;BME280;4604;48.616;9.548;2023-07-29T03:01:01;96446.88;;;18.30;100.00
9139;BME280;4604;48.616;9.548;2023-07-29T03:03:28;96442.56;;;18.29;100.00
9139;BME280;4604;48.616;9.548;2023-07-29T03:05:59;96420.75;;;18.26;100.00
9139;BME280;4604;48.616;9.548;2023-07-29T03:08:26;96437.22;;;18.29;100.00
9139;BME280;4604;48.616;9.548;2023-07-29T03:10:53;96428.81;;;18.32;100.00
9139;BME280;4604;48.616;9.548;2023-07-29T03:13:20;96436.41;;;18.35;100.00
9139;BME280;4604;48.616;9.548;2023-07-29T03:15:47;96425.09;;;18.33;100.00
9139;BME280;4604;48.616;9.548;2023-07-29T03:18:14;96416.47;;;18.31;100.00
9139;BME280;4604;48.616;9.548;2023-07-29T03:20:40;96424.50;;;18.31;100.00
9139;BME280;4604;48.616;9.548;2023-07-29T03:23:09;96419.53;;;18.28;100.00
9139;BME280;4604;48.616;9.548;2023-07-29T03:25:35;96424.50;;;18.38;100.00
9139;BME280;4604;48.616;9.548;2023-07-29T03:28:02;96411.97;;;18.32;100.00
9139;BME280;4604;48.616;9.548;2023-07-29T03:30:29;96405.38;;;18.34;100.00
9139;BME280;4604;48.616;9.548;2023-07-29T03:32:55;96380.28;;;18.22;100.00
9139;BME280;4604;48.616;9.548;2023-07-29T03:35:22;96402.31;;;18.37;100.00
9139;BME280;4604;48.616;9.548;2023-07-29T03:37:49;96415.09;;;18.49;100.00
9139;BME280;4604;48.616;9.548;2023-07-29T03:40:17;96405.41;;;18.41;100.00
9139;BME280;4604;48.616;9.548;2023-07-29T03:42:43;96399.22;;;18.40;100.00
9139;BME280;4604;48.616;9.548;2023-07-29T03:45:10;96405.19;;;18.43;100.00
9139;BME280;4604;48.616;9.548;2023-07-29T03:47:37;96409.94;;;18.47;100.00
9139;BME280;4604;48.616;9.548;2023-07-29T03:50:05;96397.81;;;18.45;100.00
9139;BME280;4604;48.616;9.548;2023-07-29T03:52:32;96392.88;;;18.42;100.00
9139;BME280;4604;48.616;9.548;2023-07-29T03:54:58;96417.56;;;18.44;100.00
9139;BME280;4604;48.616;9.548;2023-07-29T03:57:26;96406.50;;;18.67;100.00
9139;BME280;4604;48.616;9.548;2023-07-29T03:59:54;96409.75;;;18.55;100.00
9139;BME280;4604;48.616;9.548;2023-07-29T04:02:21;96422.09;;;18.56;100.00
9139;BME280;4604;48.616;9.548;2023-07-29T04:04:47;96405.03;;;18.51;100.00
9139;BME280;4604;48.616;9.548;2023-07-29T04:07:14;96406.28;;;18.61;100.00
9139;BME280;4604;48.616;9.548;2023-07-29T04:09:41;96398.66;;;18.58;100.00
9139;BME280;4604;48.616;9.548;2023-07-29T04:12:09;96395.38;;;18.63;100.00
9139;BME280;4604;48.616;9.548;2023-07-29T04:14:37;96372.72;;;18.46;100.00
9139;BME280;4604;48.616;9.548;2023-07-29T04:17:04;96387.97;;;18.65;100.00
9139;BME280;4604;48.616;9.548;2023-07-29T04:19:30;96394.75;;;18.61;100.00
9139;BME280;4604;48.616;9.548;2023-07-29T04:21:57;96403.00;;;18.66;100.00
9139;BME280;4604;48.616;9.548;2023-07-29T04:24:24;96393.13;;;18.67;100.00
9139;BME280;4604;48.616;9.548;2023-07-29T04:26:50;96390.25;;;18.75;100.00
9139;BME280;4604;48.616;9.548;2023-07-29T04:29:17;96396.88;;;18.79;100.00
9139;BME280;4604;48.616;9.548;2023-07-29T04:31:45;96408.81;;;18.83;100.00
9139;BME280;4604;48.616;9.548;2023-07-29T04:34:12;96409.84;;;18.89;100.00
9139;BME280;4604;48.616;9.548;2023-07-29T04:36:38;96414.78;;;18.85;100.00
9139;BME280;4604;48.616;9.548;2023-07-29T04:39:05;96410.03;;;18.94;100.00
9139;BME280;4604;48.616;9.548;2023-07-29T04:41:32;96411.28;;;18.98;100.00
9139;BME280;4604;48.616;9.548;2023-07-29T04:43:58;96394.63;;;18.96;100.00
9139;BME280;4604;48.616;9.548;2023-07-29T04:46:25;96402.03;;;19.07;100.00
9139;BME280;4604;48.616;9.548;2023-07-29T04:48:53;96383.53;;;19.12;100.00
9139;BME280;4604;48.616;9.548;2023-07-29T04:51:20;96396.69;;;19.27;100.00
9139;BME280;4604;48.616;9.548;2023-07-29T04:53:46;96386.38;;;19.31;100.00
9139;BME280;4604;48.616;9.548;2023-07-29T04:56:13;96390.28;;;19.35;100.00
9139;BME280;4604;48.616;9.548;2023-07-29T04:58:40;96382.69;;;19.32;100.00
9139;BME280;4604;48.616;9.548;2023-07-29T05:01:07;96399.97;;;19.29;100.00
9139;BME280;4604;48.616;9.548;2023-07-29T05:03:33;96396.88;;;19.32;100.00
9139;BME280;4604;48.616;9.548;2023-07-29T05:06:01;96408.19;;;19.34;100.00
9139;BME280;4604;48.616;9.548;2023-07-29T05:08:28;96405.91;;;19.44;100.00
9139;BME280;4604;48.616;9.548;2023-07-29T05:10:55;96403.88;;;19.40;100.00
9139;BME280;4604;48.616;9.548;2023-07-29T05:13:22;96418.69;;;19.42;100.00
9139;BME280;4604;48.616;9.548;2023-07-29T05:15:50;96420.34;;;19.37;100.00
9139;BME280;4604;48.616;9.548;2023-07-29T05:18:17;96428.38;;;19.23;100.00
9139;BME280;4604;48.616;9.548;2023-07-29T05:20:44;96427.75;;;19.28;100.00
9139;BME280;4604;48.616;9.548;2023-07-29T05:23:14;96440.09;;;19.22;100.00
9139;BME280;4604;48.616;9.548;2023-07-29T05:25:41;96437.22;;;18.97;100.00
9139;BME280;4604;48.616;9.548;2023-07-29T05:28:08;96454.41;;;18.75;100.00
9139;BME280;4604;48.616;9.548;2023-07-29T05:30:35;96454.97;;;18.50;100.00
9139;BME280;4604;48.616;9.548;2023-07-29T05:33:02;96461.06;;;18.31;100.00
9139;BME280;4604;48.616;9.548;2023-07-29T05:35:29;96490.03;;;18.27;100.00
9139;BME280;4604;48.616;9.548;2023-07-29T05:37:56;96525.94;;;18.18;100.00
9139;BME280;4604;48.616;9.548;2023-07-29T05:40:24;96534.81;;;17.97;100.00
9139;BME280;4604;48.616;9.548;2023-07-29T05:42:50;96506.94;;;18.00;100.00
9139;BME280;4604;48.616;9.548;2023-07-29T05:45:17;96487.41;;;17.99;100.00
9139;BME280;4604;48.616;9.548;2023-07-29T05:47:44;96480.69;;;18.10;100.00
9139;BME280;4604;48.616;9.548;2023-07-29T05:50:10;96478.38;;;18.00;100.00
9139;BME280;4604;48.616;9.548;2023-07-29T05:52:37;96478.53;;;17.92;100.00
9139;BME280;4604;48.616;9.548;2023-07-29T05:55:04;96464.34;;;17.91;100.00
9139;BME280;4604;48.616;9.548;2023-07-29T05:57:33;96470.16;;;17.95;100.00
9139;BME280;4604;48.616;9.548;2023-07-29T05:59:59;96461.53;;;18.00;100.00
9139;BME280;4604;48.616;9.548;2023-07-29T06:02:26;96475.34;;;18.10;100.00
9139;BME280;4604;48.616;9.548;2023-07-29T06:04:53;96474.16;;;18.19;100.00
9139;BME280;4604;48.616;9.548;2023-07-29T06:07:19;96465.56;;;18.30;100.00
9139;BME280;4604;48.616;9.548;2023-07-29T06:09:46;96435.56;;;18.28;100.00
9139;BME280;4604;48.616;9.548;2023-07-29T06:12:13;96453.38;;;18.69;100.00
9139;BME280;4604;48.616;9.548;2023-07-29T06:14:41;96448.72;;;18.91;100.00
9139;BME280;4604;48.616;9.548;2023-07-29T06:17:08;96446.88;;;19.12;100.00
9139;BME280;4604;48.616;9.548;2023-07-29T06:19:36;96449.38;;;19.27;100.00
9139;BME280;4604;48.616;9.548;2023-07-29T06:22:03;96439.28;;;19.42;100.00
9139;BME280;4604;48.616;9.548;2023-07-29T06:24:31;96448.72;;;19.58;100.00
9139;BME280;4604;48.616;9.548;2023-07-29T06:26:57;96437.22;;;19.71;100.00
9139;BME280;4604;48.616;9.548;2023-07-29T06:29:24;96436.16;;;19.85;100.00
9139;BME280;4604;48.616;9.548;2023-07-29T06:31:52;96433.81;;;20.02;100.00
9139;BME280;4604;48.616;9.548;2023-07-29T06:34:19;96421.19;;;20.22;100.00
9139;BME280;4604;48.616;9.548;2023-07-29T06:36:47;96425.28;;;20.31;100.00
9139;BME280;4604;48.616;9.548;2023-07-29T06:39:14;96436.19;;;20.37;100.00
9139;BME280;4604;48.616;9.548;2023-07-29T06:41:40;96436.56;;;20.40;100.00
9139;BME280;4604;48.616;9.548;2023-07-29T06:44:07;96426.66;;;20.41;100.00
9139;BME280;4604;48.616;9.548;2023-07-29T06:46:34;96431.00;;;20.48;100.00
9139;BME280;4604;48.616;9.548;2023-07-29T06:49:02;96427.25;;;20.49;100.00
9139;BME280;4604;48.616;9.548;2023-07-29T06:51:28;96431.09;;;20.67;100.00
9139;BME280;4604;48.616;9.548;2023-07-29T06:53:57;96434.59;;;20.67;100.00
9139;BME280;4604;48.616;9.548;2023-07-29T06:56:24;96429.47;;;20.66;100.00
9139;BME280;4604;48.616;9.548;2023-07-29T06:58:51;96428.44;;;20.67;100.00
9139;BME280;4604;48.616;9.548;2023-07-29T07:01:17;96429.84;;;20.69;100.00
9139;BME280;4604;48.616;9.548;2023-07-29T07:03:44;96433.34;;;20.70;100.00
9139;BME280;4604;48.616;9.548;2023-07-29T07:06:12;96426.38;;;20.62;100.00
9139;BME280;4604;48.616;9.548;2023-07-29T07:08:39;96435.03;;;20.64;100.00
9139;BME280;4604;48.616;9.548;2023-07-29T07:11:07;96437.97;;;20.56;100.00
9139;BME280;4604;48.616;9.548;2023-07-29T07:13:33;96443.72;;;20.53;100.00
9139;BME280;4604;48.616;9.548;2023-07-29T07:16:00;96444.41;;;20.42;100.00
9139;BME280;4604;48.616;9.548;2023-07-29T07:18:27;96453.69;;;20.39;100.00
9139;BME280;4604;48.616;9.548;2023-07-29T07:20:53;96452.28;;;20.37;100.00
9139;BME280;4604;48.616;9.548;2023-07-29T07:23:21;96473.75;;;20.23;100.00
9139;BME280;4604;48.616;9.548;2023-07-29T07:25:48;96512.56;;;19.94;100.00
9139;BME280;4604;48.616;9.548;2023-07-29T07:28:15;96546.16;;;19.63;100.00
9139;BME280;4604;48.616;9.548;2023-07-29T07:30:41;96537.22;;;19.03;100.00
9139;BME280;4604;48.616;9.548;2023-07-29T07:33:08;96537.50;;;18.73;100.00
9139;BME280;4604;48.616;9.548;2023-07-29T07:35:35;96536.88;;;18.71;100.00
9139;BME280;4604;48.616;9.548;2023-07-29T07:38:02;96525.66;;;18.48;100.00
9139;BME280;4604;48.616;9.548;2023-07-29T07:40:31;96503.88;;;18.44;100.00
9139;BME280;4604;48.616;9.548;2023-07-29T07:42:58;96519.53;;;18.54;100.00
9139;BME280;4604;48.616;9.548;2023-07-29T07:45:24;96526.97;;;18.58;100.00
9139;BME280;4604;48.616;9.548;2023-07-29T07:47:51;96530.69;;;18.64;100.00
9139;BME280;4604;48.616;9.548;2023-07-29T07:50:18;96527.63;;;18.74;100.00
9139;BME280;4604;48.616;9.548;2023-07-29T07:52:46;96534.09;;;18.93;100.00
9139;BME280;4604;48.616;9.548;2023-07-29T07:55:13;96508.59;;;18.90;100.00
9139;BME280;4604;48.616;9.548;2023-07-29T07:57:41;96524.88;;;19.09;100.00
9139;BME280;4604;48.616;9.548;2023-07-29T08:00:09;96499.56;;;19.11;100.00
9139;BME280;4604;48.616;9.548;2023-07-29T08:02:36;96514.19;;;19.35;100.00
9139;BME280;4604;48.616;9.548;2023-07-29T08:05:02;96507.84;;;19.50;100.00
9139;BME280;4604;48.616;9.548;2023-07-29T08:07:29;96499.78;;;19.63;100.00
9139;BME280;4604;48.616;9.548;2023-07-29T08:09:59;96497.34;;;19.75;100.00
9139;BME280;4604;48.616;9.548;2023-07-29T08:12:25;96487.06;;;19.78;100.00
9139;BME280;4604;48.616;9.548;2023-07-29T08:14:53;96489.09;;;19.83;100.00
9139;BME280;4604;48.616;9.548;2023-07-29T08:17:20;96490.53;;;19.85;100.00
9139;BME280;4604;48.616;9.548;2023-07-29T08:19:46;96489.50;;;19.93;100.00
9139;BME280;4604;48.616;9.548;2023-07-29T08:22:13;96490.69;;;20.04;100.00
9139;BME280;4604;48.616;9.548;2023-07-29T08:24:42;96483.47;;;20.04;100.00
9139;BME280;4604;48.616;9.548;2023-07-29T08:27:09;96474.63;;;20.10;100.00
9139;BME280;4604;48.616;9.548;2023-07-29T08:29:35;96480.09;;;20.36;100.00
9139;BME280;4604;48.616;9.548;2023-07-29T08:32:03;96489.31;;;20.53;100.00
9139;BME280;4604;48.616;9.548;2023-07-29T08:34:30;96498.59;;;20.64;100.00
9139;BME280;4604;48.616;9.548;2023-07-29T08:36:57;96499.41;;;20.64;100.00
9139;BME280;4604;48.616;9.548;2023-07-29T08:39:23;96502.66;;;20.73;100.00
9139;BME280;4604;48.616;9.548;2023-07-29T08:41:55;96503.22;;;20.82;100.00
9139;BME280;4604;48.616;9.548;2023-07-29T08:44:26;96504.50;;;20.72;100.00
9139;BME280;4604;48.616;9.548;2023-07-29T08:46:53;96511.09;;;20.77;100.00
9139;BME280;4604;48.616;9.548;2023-07-29T08:49:23;96510.09;;;20.78;100.00
9139;BME280;4604;48.616;9.548;2023-07-29T08:51:51;96510.75;;;20.60;100.00
9139;BME280;4604;48.616;9.548;2023-07-29T08:54:19;96515.50;;;20.64;100.00
9139;BME280;4604;48.616;9.548;2023-07-29T08:56:46;96522.53;;;20.52;100.00
9139;BME280;4604;48.616;9.548;2023-07-29T08:59:13;96516.56;;;20.43;100.00
9139;BME280;4604;48.616;9.548;2023-07-29T09:01:41;96503.56;;;20.47;100.00
9139;BME280;4604;48.616;9.548;2023-07-29T09:04:08;96521.72;;;20.58;100.00
9139;BME280;4604;48.616;9.548;2023-07-29T09:06:37;96520.56;;;20.79;100.00
9139;BME280;4604;48.616;9.548;2023-07-29T09:09:07;96523.66;;;20.83;100.00
9139;BME280;4604;48.616;9.548;2023-07-29T09:11:35;96533.75;;;20.87;100.00
9139;BME280;4604;48.616;9.548;2023-07-29T09:14:01;96537.28;;;20.81;100.00
9139;BME280;4604;48.616;9.548;2023-07-29T09:16:28;96528.34;;;20.94;100.00
9139;BME280;4604;48.616;9.548;2023-07-29T09:18:55;96530.97;;;21.07;100.00
9139;BME280;4604;48.616;9.548;2023-07-29T09:21:23;96514.78;;;21.21;100.00
9139;BME280;4604;48.616;9.548;2023-07-29T09:23:52;96516.13;;;21.36;100.00
9139;BME280;4604;48.616;9.548;2023-07-29T09:26:22;96516.84;;;21.50;100.00
9139;BME280;4604;48.616;9.548;2023-07-29T09:28:52;96519.81;;;21.67;100.00
9139;BME280;4604;48.616;9.548;2023-07-29T09:31:20;96509.63;;;21.76;100.00
9139;BME280;4604;48.616;9.548;2023-07-29T09:33:47;96498.69;;;21.96;99.87
9139;BME280;4604;48.616;9.548;2023-07-29T09:36:14;96499.25;;;22.05;98.87
9139;BME280;4604;48.616;9.548;2023-07-29T09:38:41;96503.97;;;22.28;98.74
9139;BME280;4604;48.616;9.548;2023-07-29T09:41:11;96502.88;;;22.54;99.10
9139;BME280;4604;48.616;9.548;2023-07-29T09:43:39;96493.72;;;22.73;92.65
9139;BME280;4604;48.616;9.548;2023-07-29T09:46:06;96490.44;;;22.71;89.53
9139;BME280;4604;48.616;9.548;2023-07-29T09:48:36;96482.56;;;22.70;90.05
9139;BME280;4604;48.616;9.548;2023-07-29T09:51:12;96488.16;;;22.56;87.01
9139;BME280;4604;48.616;9.548;2023-07-29T09:53:40;96472.22;;;22.55;89.57
9139;BME280;4604;48.616;9.548;2023-07-29T09:56:09;96476.72;;;22.91;88.97
9139;BME280;4604;48.616;9.548;2023-07-29T09:58:36;96473.97;;;22.79;84.14
9139;BME280;4604;48.616;9.548;2023-07-29T10:01:03;96467.22;;;23.19;84.74
9139;BME280;4604;48.616;9.548;2023-07-29T10:03:31;96464.13;;;23.34;82.99
9139;BME280;4604;48.616;9.548;2023-07-29T10:06:00;96476.53;;;23.46;84.24
9139;BME280;4604;48.616;9.548;2023-07-29T10:08:29;96486.72;;;23.44;84.55
9139;BME280;4604;48.616;9.548;2023-07-29T10:10:58;96485.53;;;22.98;81.90
9139;BME280;4604;48.616;9.548;2023-07-29T10:13:27;96462.41;;;23.09;83.36
9139;BME280;4604;48.616;9.548;2023-07-29T10:15:54;96464.69;;;23.36;83.82
9139;BME280;4604;48.616;9.548;2023-07-29T10:18:21;96475.50;;;23.05;86.10
9139;BME280;4604;48.616;9.548;2023-07-29T10:20:50;96472.97;;;23.22;89.86
9139;BME280;4604;48.616;9.548;2023-07-29T10:23:18;96470.34;;;23.46;83.06
9139;BME280;4604;48.616;9.548;2023-07-29T10:25:49;96465.00;;;23.81;80.71
9139;BME280;4604;48.616;9.548;2023-07-29T10:28:20;96472.75;;;23.36;84.29
9139;BME280;4604;48.616;9.548;2023-07-29T10:30:48;96474.75;;;23.40;84.46
9139;BME280;4604;48.616;9.548;2023-07-29T10:33:16;96469.47;;;23.22;82.66
9139;BME280;4604;48.616;9.548;2023-07-29T10:35:43;96465.94;;;23.21;80.99
9139;BME280;4604;48.616;9.548;2023-07-29T10:38:10;96474.34;;;23.13;79.36
9139;BME280;4604;48.616;9.548;2023-07-29T10:40:47;96466.09;;;23.26;80.66
9139;BME280;4604;48.616;9.548;2023-07-29T10:43:19;96468.88;;;23.20;80.46
9139;BME280;4604;48.616;9.548;2023-07-29T10:45:51;96445.97;;;23.64;81.86
9139;BME280;4604;48.616;9.548;2023-07-29T10:48:39;96459.81;;;23.91;78.07
9139;BME280;4604;48.616;9.548;2023-07-29T10:51:22;96464.19;;;23.92;76.78
9139;BME280;4604;48.616;9.548;2023-07-29T10:53:52;96470.94;;;23.71;76.71
9139;BME280;4604;48.616;9.548;2023-07-29T10:56:25;96465.34;;;23.73;76.98
9139;BME280;4604;48.616;9.548;2023-07-29T10:58:52;96457.72;;;23.82;75.25
9139;BME280;4604;48.616;9.548;2023-07-29T11:01:28;96445.75;;;23.89;75.79
9139;BME280;4604;48.616;9.548;2023-07-29T11:04:25;96456.78;;;23.88;75.86
9139;BME280;4604;48.616;9.548;2023-07-29T11:07:22;96460.19;;;23.95;75.54
9139;BME280;4604;48.616;9.548;2023-07-29T11:09:57;96453.81;;;24.13;71.60
9139;BME280;4604;48.616;9.548;2023-07-29T11:12:37;96453.13;;;24.18;73.70
9139;BME280;4604;48.616;9.548;2023-07-29T11:15:12;96465.16;;;24.50;70.48
9139;BME280;4604;48.616;9.548;2023-07-29T11:17:43;96467.03;;;24.38;71.04
9139;BME280;4604;48.616;9.548;2023-07-29T11:20:11;96466.28;;;24.95;73.25
9139;BME280;4604;48.616;9.548;2023-07-29T11:22:40;96465.31;;;24.72;70.16
9139;BME280;4604;48.616;9.548;2023-07-29T11:25:08;96469.19;;;24.76;69.39
9139;BME280;4604;48.616;9.548;2023-07-29T11:27:35;96458.66;;;24.92;69.16
9139;BME280;4604;48.616;9.548;2023-07-29T11:30:03;96470.34;;;25.09;67.17
9139;BME280;4604;48.616;9.548;2023-07-29T11:32:31;96479.69;;;25.18;67.52
9139;BME280;4604;48.616;9.548;2023-07-29T11:35:03;96467.94;;;25.25;66.47
9139;BME280;4604;48.616;9.548;2023-07-29T11:37:30;96471.13;;;25.22;63.98
9139;BME280;4604;48.616;9.548;2023-07-29T11:39:56;96474.66;;;24.82;64.00
9139;BME280;4604;48.616;9.548;2023-07-29T11:42:24;96465.22;;;25.25;65.71
9139;BME280;4604;48.616;9.548;2023-07-29T11:44:50;96456.66;;;25.16;65.50
9139;BME280;4604;48.616;9.548;2023-07-29T11:47:17;96469.81;;;25.24;62.85
9139;BME280;4604;48.616;9.548;2023-07-29T11:49:44;96436.00;;;24.93;63.02
9139;BME280;4604;48.616;9.548;2023-07-29T11:52:12;96464.56;;;25.17;62.88
9139;BME280;4604;48.616;9.548;2023-07-29T11:54:39;96453.38;;;25.14;60.76
9139;BME280;4604;48.616;9.548;2023-07-29T11:57:06;96455.38;;;25.18;60.95
9139;BME280;4604;48.616;9.548;2023-07-29T11:59:34;96446.63;;;25.28;60.93
9139;BME280;4604;48.616;9.548;2023-07-29T12:02:01;96448.03;;;25.31;59.32
9139;BME280;4604;48.616;9.548;2023-07-29T12:04:29;96440.41;;;25.28;58.44
9139;BME280;4604;48.616;9.548;2023-07-29T12:06:56;96447.78;;;25.32;57.71
9139;BME280;4604;48.616;9.548;2023-07-29T12:09:24;96446.81;;;25.22;58.50
9139;BME280;4604;48.616;9.548;2023-07-29T12:11:52;96444.75;;;25.46;59.87
9139;BME280;4604;48.616;9.548;2023-07-29T12:14:19;96447.22;;;25.47;59.50
9139;BME280;4604;48.616;9.548;2023-07-29T12:16:47;96444.34;;;25.37;59.57
9139;BME280;4604;48.616;9.548;2023-07-29T12:19:14;96434.88;;;25.34;59.96
9139;BME280;4604;48.616;9.548;2023-07-29T12:21:43;96443.22;;;25.50;60.05
9139;BME280;4604;48.616;9.548;2023-07-29T12:24:12;96427.81;;;25.50;57.87
9139;BME280;4604;48.616;9.548;2023-07-29T12:26:40;96450.41;;;25.44;57.89
9139;BME280;4604;48.616;9.548;2023-07-29T12:29:11;96415.34;;;25.15;59.14
9139;BME280;4604;48.616;9.548;2023-07-29T12:31:38;96423.31;;;25.39;59.38
9139;BME280;4604;48.616;9.548;2023-07-29T12:34:05;96431.97;;;25.58;60.24
9139;BME280;4604;48.616;9.548;2023-07-29T12:36:42;96433.88;;;25.57;59.28
9139;BME280;4604;48.616;9.548;2023-07-29T12:39:16;96421.66;;;25.55;59.96
9139;BME280;4604;48.616;9.548;2023-07-29T12:41:49;96421.34;;;25.68;58.57
9139;BME280;4604;48.616;9.548;2023-07-29T12:44:15;96421.56;;;26.00;59.55
9139;BME280;4604;48.616;9.548;2023-07-29T12:46:42;96429.75;;;26.27;57.13
9139;BME280;4604;48.616;9.548;2023-07-29T12:49:10;96448.69;;;26.27;56.56
9139;BME280;4604;48.616;9.548;2023-07-29T12:51:36;96441.00;;;26.19;55.09
9139;BME280;4604;48.616;9.548;2023-07-29T12:54:03;96448.53;;;25.61;55.74
9139;BME280;4604;48.616;9.548;2023-07-29T12:56:31;96434.28;;;25.66;58.18
9139;BME280;4604;48.616;9.548;2023-07-29T12:58:59;96449.09;;;25.47;58.27
9139;BME280;4604;48.616;9.548;2023-07-29T13:01:26;96446.88;;;25.77;57.04
9139;BME280;4604;48.616;9.548;2023-07-29T13:03:53;96432.75;;;25.36;57.92
9139;BME280;4604;48.616;9.548;2023-07-29T13:06:20;96439.63;;;25.44;58.04
9139;BME280;4604;48.616;9.548;2023-07-29T13:08:47;96437.22;;;25.48;57.94
9139;BME280;4604;48.616;9.548;2023-07-29T13:11:14;96446.31;;;25.41;57.01
9139;BME280;4604;48.616;9.548;2023-07-29T13:13:41;96439.34;;;25.46;55.94
9139;BME280;4604;48.616;9.548;2023-07-29T13:16:10;96443.34;;;25.43;56.54
9139;BME280;4604;48.616;9.548;2023-07-29T13:18:37;96445.31;;;25.31;57.05